الصفحة الرئيسية
METAR-TAF:

METAR-TAF

مطار :

مطار نواكشوط الدولي

نواكشوط, موريتانيا

دائرة عرض: 18-18-36N, خط طول: 015-58-11W, ارتفاع: 3 متر

مراقبة الطقس الحالي

تاريخ ووقت الإصدار 44 دقيقة قبل الساعة 19:30UTC
ريح 15 عقدة من الغرب/الشمال الغربي
درجة الحرارة 27°درجة مئوية
الرطوبة 79%
ضغط 1011 hPa
الرؤية: 8000 متر

METAR: GQNO 161930Z 29015KT 8000 NSC 27/23 Q1011 NOSIG

زمن: 20:14 (20:14 UTC)

توقعات

تاريخ ووقت الإصدار 3ساعات و 14 دقيقة قبل الساعة 17:00UTC
التوقعات صالحة من16 الساعة 18 UTC إلى 17 الساعة 24 UTC
ريح 12 عقدة من الشمال الغربي
الرؤية: 7000 متر
أصبح
من 16 الساعة 20 UTC إلى 16 الساعة 22 UTC
غيوم مفككة على ارتفاع 1000 قدم
نظرية الاحتمالات 30% :
مؤقت
من 16 الساعة 21 UTC إلى 17 الساعة 03 UTC
غيوم قليلة على ارتفاع 3000 قدم, مزنة ركامية.
عاصفة رعدية, مطر خفيف
أصبح
من 17 الساعة 08 UTC إلى 17 الساعة 10 UTC
غيوم قليلة على ارتفاع 1000 قدم

TAF: GQNO 161700Z 1618/1724 32012KT 7000 NSC BECMG 1620/1622 BKN010 PROB30 TEMPO 1621/1703 -TSRA FEW030CB BECMG 1708/1710 FEW010

أرصاد الطقس والتوقعات من أكثر من 4000 مطار (تقارير الطقس للمطار METAR والتنبؤ بالطقس بالمطارTAF).

المحطات المتاحة هي النقط الصفراء والحمراء على الخريطة.

حرك المؤشر فوق النقطة لمعرفة اسم المحطة.

ثم انقر لمعرفة أرصاد وتوقعات الطقس.

لتغيير الخارطة: اضغط على الأزرار الخضراء مع رمز الصليب الأسود للتكبير. على الزر الأخضر مع شرطة للتصغير، أو على الأسهم الخضراء للخرائط المجاورة.


METAR-TAF: